x

Prince Edward Pt (45135) Wave Buoy

5:00am - Fri 29th Aug 2014 All times are CDT. -5 hours from GMT.

  • Sig Wave height 1.0ft
  • Peak Period 4s
  • Wind
    9mph
  • Sea Temp 67°f
  • Air Temp 63°f
  • Sea Pressure 1021.5mb
  • Prince Edward Pt
  • Prince Edward Pt

More Historic Weather Station data

Upgrade to MSW Pro to gain access to the past 30 days of data for over 8000 Wavebouys and Weather Stations around the globe.

Join Pro

Comparision Forecast

View Surf forecast
   
Fri 08/29 5:00am 1ft 4s 9
mph
1021.5mb 67f 63f
4:00am 1ft 4s 9
mph
1020.9mb 67f 64f
3:00am 1ft 4s 9
mph
1020.6mb 67f 64f
2:00am 1.3ft 5s 9 11 mph 1020.5mb 67f 64f
1:00am 1.6ft 4s 9 13 mph 1020.6mb 67f 65f
12:00am 2ft 4s 11 13 mph 1020.3mb 67f 66f
Thu 08/28 11:00pm 2.5ft 4s 11 13 mph 1019.9mb 68f 66f
10:00pm 2.5ft 5s 16 18 mph 1019.6mb 68f 66f
8:00pm 2ft 5s 9
mph
1018.6mb 68f 69f
7:00pm 2.5ft 5s 9
mph
1017.7mb 69f 69f
6:00pm 2.5ft 5s 9
mph
1017.4mb 69f 69f
5:00pm 2.5ft 5s 9
mph
1017.2mb 69f 69f
4:00pm 2ft 5s 11 13 mph 1016.9mb 69f 69f
3:00pm 2ft 5s 9 13 mph 1016.7mb 69f 68f
2:00pm 2ft 5s 4 7 mph 1016.6mb 69f 67f
1:00pm 2ft 4s 7 9 mph 1016.8mb 69f 65f
12:00pm 2ft 4s 11 13 mph 1016.8mb 68f 65f
10:00am 2ft 5s 9 11 mph 1016.8mb 68f 64f
9:00am 2.5ft 5s 11 13 mph 1016.7mb 68f 63f
8:00am 2.5ft 5s 16 18 mph 1016.1mb 68f 62f
7:00am 2.5ft 4s 16 20 mph 1015.8mb 68f 61f
6:00am 2.5ft 3s 16 20 mph 1015.6mb 68f 62f
5:00am 2ft 3s 16 18 mph 1015.4mb 68f 62f
4:00am 2ft 5s 13 18 mph 1015mb 68f 63f
3:00am 2ft 4s 18
mph
1014.8mb 68f 63f
2:00am 2ft 5s 16 18 mph 1014.8mb 68f 63f
1:00am 2ft 5s 18 20 mph 1015mb 69f 63f
12:00am 2ft 5s 18 20 mph 1015.3mb 69f 64f
Wed 08/27 11:00pm 2ft 5s 18 20 mph 1015.4mb 69f 65f
10:00pm 2ft 4s 18 22 mph 1015.4mb 69f 66f
9:00pm 2.5ft 5s 20 22 mph 1015.4mb 69f 67f
8:00pm 2.5ft 5s 16 20 mph 1015.3mb 69f 69f
7:00pm 2.5ft 5s 13 16 mph 1014.9mb 69f 70f
6:00pm 3.5ft 4s 18 22 mph 1014.8mb 69f 70f
5:00pm 3.5ft 4s 20 22 mph 1014.6mb 69f 70f
4:00pm 3ft 4s 20 22 mph 1014.9mb 69f 69f
3:00pm 2.5ft 4s 20 25 mph 1014.5mb 69f 69f
2:00pm 2ft 4s 20 22 mph 1014.6mb 70f 69f
1:00pm 1.6ft 3s 16 18 mph 1015.3mb 70f 68f
12:00pm 1.3ft 3s 16 18 mph 1015.4mb 69f 68f
11:00am 1ft 3s 13
mph
1016mb 69f 68f
10:00am 1ft 4s 9 11 mph 1016.3mb 69f 68f
9:00am 1ft 3s 11 13 mph 1016.4mb 69f 68f
8:00am 1ft 3s 11
mph
1015.9mb 69f 68f
7:00am 1ft 3s 11
mph
1016.2mb 69f 69f
6:00am 1ft 3s 11 13 mph 1015.8mb 69f 70f
5:00am 1ft 3s 9 13 mph 1015.5mb 69f 71f
4:00am 1ft 3s 9
mph
1015.1mb 69f 71f
3:00am 1ft 3s 7
mph
1014.9mb 69f 70f
2:00am 1.3ft 3s 13
mph
1014.7mb 69f 71f
1:00am 1.3ft 3s 11 13 mph 1014.6mb 69f 71f
12:00am 1ft 3s 13 16 mph 1014.5mb 70f 73f
Tue 08/26 11:00pm 1ft 3s 13
mph
1014.1mb 70f 73f
10:00pm 1ft 3s 13 16 mph 1014.2mb 70f 73f
9:00pm 0.7ft 2s 13
mph
1014.4mb 70f 73f
8:00pm 0.3ft 2s 11 13 mph 1014.7mb 70f 73f
7:00pm 0.3ft 2s 11
mph
1015.1mb 70f 73f
6:00pm 0.3ft 3s 9 11 mph 1015.5mb 70f 73f
5:00pm 0.7ft 3s 9
mph
1015.8mb 70f 73f
4:00pm 0.7ft 3s 9 11 mph 1016.1mb 70f 73f
3:00pm 1ft 3s 9 11 mph 1016.7mb 70f 73f
2:00pm 1ft 3s 9 11 mph 1017.3mb 70f 73f
1:00pm 1ft 3s 11
mph
1018.4mb 70f 72f
12:00pm 1.3ft 4s 7 9 mph 1018.9mb 69f 71f
11:00am 1.3ft 4s 9
mph
1019.5mb 69f 70f
10:00am 1.6ft 4s 9 11 mph 1019.5mb 69f 69f
9:00am 1.6ft 4s 9 11 mph 1019.8mb 68f 68f
8:00am 1.6ft 4s 11 13 mph 1019.6mb 68f 67f
7:00am 2ft 4s 9 13 mph 1019.6mb 68f 68f
6:00am 1.6ft 4s 13 16 mph 1019.6mb 68f 68f
5:00am 1.6ft 4s 13 16 mph 1019.4mb 68f 68f
4:00am 1.6ft 4s 13 16 mph 1019.1mb 68f 69f
3:00am 1.6ft 3s 11 13 mph 1019mb 69f 69f
2:00am 1.3ft 3s 13 16 mph 1018.9mb 69f 69f
1:00am 1ft 2s 13 18 mph 1018.7mb 69f 70f
12:00am 0.7ft 2s 13 16 mph 1018.9mb 69f 71f
Mon 08/25 11:00pm 0.3ft 2s 11 13 mph 1018.7mb 69f 71f
10:00pm 0.3ft 3s 11
mph
1019mb 70f 71f
9:00pm  -  3s 9 11 mph 1019.2mb 71f 71f
8:00pm  -  4s 7
mph
1019.4mb 71f 72f
7:00pm  -  3s 4
mph
1019.3mb 71f 72f
6:00pm  -  5s 4
mph
1019.6mb 72f 73f
5:00pm 0.3ft 4s 4
mph
1020mb 72f 73f
4:00pm 0.3ft 5s 2 4 mph 1020.4mb 73f 73f
3:00pm 0.3ft 2s 2
mph
1020.6mb 73f 72f
2:00pm 0.3ft 2s 2 4 mph 1021mb 72f 71f
1:00pm 0.3ft 2s 4
mph
1021.5mb 71f 70f
12:00pm 0.3ft 5s 4
mph
1022mb 70f 69f